Time;durP1;ratioP1;P1;durP2;ratioP2;P2;SDS_P1;SDS_P2;PMS_P1;PMS_P2;Temp;Humidity;BMP_temperature;BMP_pressure;BME280_temperature;BME280_humidity;BME280_pressure;Samples;Min_cycle;Max_cycle;Signal;HPM_P1;HPM_P2
2022/05/09 00:01:18;;;;;;;10.07;3.90;;;;;;;19.22;nan;101480.41;4978998;28;20449;-89
2022/05/09 00:03:47;;;;;;;11.57;3.90;;;;;;;19.17;nan;101477.47;4992807;28;20461;-89
2022/05/09 00:06:15;;;;;;;19.73;4.07;;;;;;;19.23;nan;101482.09;5004202;28;20460;-90
2022/05/09 00:08:43;;;;;;;6.93;3.70;;;;;;;19.22;nan;101477.63;4982187;28;20462;-90
2022/05/09 00:11:12;;;;;;;14.83;4.83;;;;;;;19.26;nan;101475.22;4982278;28;20440;-90
2022/05/09 00:13:40;;;;;;;12.57;5.03;;;;;;;19.28;nan;101476.69;5014508;28;21015;-89
2022/05/09 00:16:08;;;;;;;15.10;4.10;;;;;;;19.31;nan;101472.59;4994461;28;20453;-90
2022/05/09 00:18:36;;;;;;;11.60;4.00;;;;;;;19.28;nan;101465.59;4994875;28;20488;-90
2022/05/09 00:21:04;;;;;;;10.80;4.13;;;;;;;19.31;nan;101467.06;4997864;28;20464;-89
2022/05/09 00:23:32;;;;;;;8.50;4.10;;;;;;;19.30;nan;101470.91;4997766;28;20480;-90
2022/05/09 00:26:01;;;;;;;8.97;3.30;;;;;;;19.31;nan;101467.06;4997997;28;20816;-90
2022/05/09 00:28:29;;;;;;;16.23;5.23;;;;;;;19.33;nan;101474.06;4994592;28;20464;-90
2022/05/09 00:30:56;;;;;;;10.27;4.50;;;;;;;19.27;nan;101457.50;4966374;28;20454;-89
2022/05/09 00:33:24;;;;;;;10.20;3.87;;;;;;;19.26;nan;101464.13;4996862;28;20633;-90
2022/05/09 00:35:54;;;;;;;13.97;4.30;;;;;;;19.25;nan;101468.81;5013827;28;20448;-89
2022/05/09 00:38:25;;;;;;;9.03;3.50;;;;;;;19.17;nan;101449.75;5013758;28;20541;-90
2022/05/09 00:43:42;;;;;;;15.07;4.17;;;;;;;19.14;nan;101461.31;5013669;28;20455;-90
2022/05/09 00:46:11;;;;;;;11.60;4.77;;;;;;;19.13;nan;101464.31;4994174;28;20470;-90
2022/05/09 00:48:39;;;;;;;12.53;4.13;;;;;;;19.10;nan;101460.06;4955478;28;20477;-90
2022/05/09 00:51:07;;;;;;;12.10;4.10;;;;;;;19.03;nan;101456.56;4926585;28;20457;-90
2022/05/09 00:53:36;;;;;;;10.63;3.90;;;;;;;19.02;nan;101454.88;4940369;28;20446;-90
2022/05/09 00:56:06;;;;;;;13.40;5.27;;;;;;;18.93;nan;101447.94;4957311;28;20454;-90
2022/05/09 00:58:43;;;;;;;15.07;4.47;;;;;;;18.95;nan;101452.16;4926814;28;20582;-90
2022/05/09 01:01:10;;;;;;;7.90;4.50;;;;;;;18.92;nan;101452.63;4957149;28;20530;-89
2022/05/09 01:04:00;;;;;;;10.33;4.03;;;;;;;18.84;nan;101443.81;4925324;28;20461;-90
2022/05/09 01:06:30;;;;;;;11.03;4.07;;;;;;;18.88;nan;101451.38;4941398;28;20468;-91
2022/05/09 01:08:58;;;;;;;13.87;5.27;;;;;;;18.83;nan;101439.34;5008481;28;20460;-88
2022/05/09 01:11:27;;;;;;;6.63;3.73;;;;;;;18.83;nan;101434.66;4980491;28;20452;-89
2022/05/09 01:14:20;;;;;;;9.20;3.90;;;;;;;18.84;nan;101441.88;5014197;28;20460;-89
2022/05/09 01:16:53;;;;;;;13.00;4.47;;;;;;;18.79;nan;101436.19;4953554;28;20452;-89
2022/05/09 01:19:36;;;;;;;12.30;3.77;;;;;;;18.85;nan;101451.03;4937870;29;20498;-89
2022/05/09 01:22:24;;;;;;;14.13;5.33;;;;;;;18.84;nan;101443.81;4953621;29;20517;-88
2022/05/09 01:24:54;;;;;;;14.30;4.37;;;;;;;18.82;nan;101446.78;4938002;28;20462;-90
2022/05/09 01:27:22;;;;;;;16.93;3.90;;;;;;;18.83;nan;101437.41;4937666;29;20470;-88
2022/05/09 01:29:52;;;;;;;9.87;3.50;;;;;;;18.72;nan;101423.47;4934652;28;20490;-89
2022/05/09 01:32:27;;;;;;;9.07;3.47;;;;;;;18.82;nan;101440.41;4946688;28;20450;-90
2022/05/09 01:35:08;;;;;;;18.40;4.10;;;;;;;18.81;nan;101433.19;4972074;28;20951;-89
2022/05/09 01:37:35;;;;;;;11.00;3.20;;;;;;;18.81;nan;101428.50;4986879;28;20476;-89
2022/05/09 01:40:06;;;;;;;11.20;3.90;;;;;;;18.83;nan;101425.50;4976666;28;20495;-89
2022/05/09 01:42:42;;;;;;;10.10;3.80;;;;;;;18.81;nan;101425.72;5012698;28;20510;-90
2022/05/09 01:45:13;;;;;;;11.03;4.30;;;;;;;18.78;nan;101422.56;5029146;28;20456;-89
2022/05/09 01:50:29;;;;;;;11.33;3.93;;;;;;;18.68;nan;101414.78;4993280;28;20457;-89
2022/05/09 01:52:56;;;;;;;16.03;4.60;;;;;;;18.59;nan;101410.63;4989233;28;20484;-89
2022/05/09 01:55:24;;;;;;;11.17;4.10;;;;;;;18.51;nan;101416.44;4980238;28;20453;-90
2022/05/09 01:57:52;;;;;;;10.40;3.77;;;;;;;18.36;nan;101397.44;4991738;28;20543;-89
2022/05/09 02:00:21;;;;;;;6.90;3.60;;;;;;;18.38;nan;101420.19;4997773;28;20949;-89
2022/05/09 02:02:49;;;;;;;9.50;3.40;;;;;;;18.33;nan;101420.03;4978828;28;20464;-90
2022/05/09 02:05:16;;;;;;;14.83;4.00;;;;;;;18.23;nan;101408.66;4996052;28;20527;-89
2022/05/09 02:07:45;;;;;;;9.50;3.97;;;;;;;18.14;nan;101405.31;4906777;29;20448;-90
2022/05/09 02:10:13;;;;;;;7.10;3.57;;;;;;;18.08;nan;101411.78;4918218;29;20543;-90
2022/05/09 02:12:41;;;;;;;5.57;3.70;;;;;;;18.00;nan;101413.97;4904405;29;20452;-89
2022/05/09 02:15:09;;;;;;;7.77;3.20;;;;;;;17.92;nan;101404.88;4891873;29;20485;-90
2022/05/09 02:17:38;;;;;;;11.30;3.50;;;;;;;17.79;nan;101404.16;4882259;29;20850;-89
2022/05/09 02:20:09;;;;;;;12.30;3.80;;;;;;;17.74;nan;101415.88;4888116;29;20456;-89
2022/05/09 02:22:43;;;;;;;10.30;3.30;;;;;;;17.65;nan;101422.78;4903553;29;20449;-89
2022/05/09 02:28:01;;;;;;;7.20;3.27;;;;;;;17.50;nan;101423.06;4994954;28;20453;-89
2022/05/09 02:30:33;;;;;;;11.53;3.53;;;;;;;17.41;nan;101429.06;4996191;28;20453;-89
2022/05/09 02:33:02;;;;;;;5.03;2.40;;;;;;;17.34;nan;101431.84;5012526;28;20464;-90
2022/05/09 02:35:30;;;;;;;7.77;2.80;;;;;;;17.13;nan;101415.59;4960567;28;20457;-89
2022/05/09 02:37:58;;;;;;;5.77;2.83;;;;;;;17.15;nan;101439.19;4995005;28;20473;-89
2022/05/09 02:40:26;;;;;;;5.73;2.93;;;;;;;17.04;nan;101419.72;4995978;28;20821;-89
2022/05/09 02:42:57;;;;;;;9.40;3.30;;;;;;;17.13;nan;101421.97;4992778;28;20458;-89
2022/05/09 02:45:26;;;;;;;12.43;3.47;;;;;;;17.21;nan;101431.94;4992011;28;20453;-89
2022/05/09 02:47:54;;;;;;;8.20;3.20;;;;;;;17.26;nan;101430.22;4995894;28;20518;-89
2022/05/09 02:50:23;;;;;;;6.23;3.07;;;;;;;17.24;nan;101418.53;4979580;28;20448;-89
2022/05/09 02:52:52;;;;;;;13.17;4.23;;;;;;;17.44;nan;101431.38;4995919;28;20445;-89
2022/05/09 02:55:23;;;;;;;7.60;3.50;;;;;;;17.57;nan;101431.28;4994413;28;20468;-89
2022/05/09 02:57:51;;;;;;;8.47;4.10;;;;;;;17.66;nan;101435.53;4996742;28;20481;-88
2022/05/09 03:00:22;;;;;;;8.93;3.33;;;;;;;17.72;nan;101429.09;4995875;28;20464;-90
2022/05/09 03:05:39;;;;;;;10.80;3.53;;;;;;;17.83;nan;101414.53;4968977;28;20463;-90
2022/05/09 03:08:08;;;;;;;5.73;3.10;;;;;;;17.86;nan;101411.34;5011892;28;20457;-90
2022/05/09 03:10:37;;;;;;;8.60;3.40;;;;;;;17.90;nan;101420.84;5010199;28;20472;-89
2022/05/09 03:13:07;;;;;;;7.33;3.10;;;;;;;17.86;nan;101399.44;4998853;28;20838;-91
2022/05/09 03:15:37;;;;;;;5.10;2.70;;;;;;;17.84;nan;101398.81;4963777;28;20453;-89
2022/05/09 03:18:06;;;;;;;5.60;2.90;;;;;;;17.86;nan;101402.19;5012995;28;20480;-89
2022/05/09 03:20:34;;;;;;;7.50;3.63;;;;;;;17.78;nan;101383.94;4979837;28;20507;-89
2022/05/09 03:23:04;;;;;;;7.37;2.83;;;;;;;17.84;nan;101396.88;4984780;28;20455;-89
2022/05/09 03:25:35;;;;;;;4.63;2.57;;;;;;;17.82;nan;101399.03;5015459;28;20842;-90
2022/05/09 03:28:06;;;;;;;6.33;2.73;;;;;;;17.78;nan;101391.41;4999091;28;20974;-90
2022/05/09 03:30:34;;;;;;;10.30;2.80;;;;;;;17.85;nan;101403.25;4999905;28;20493;-89
2022/05/09 03:33:03;;;;;;;4.57;2.30;;;;;;;17.80;nan;101394.78;4981478;28;20448;-89
2022/05/09 03:35:34;;;;;;;7.07;2.50;;;;;;;17.86;nan;101403.03;5007082;28;20448;-89
2022/05/09 03:38:02;;;;;;;6.20;2.77;;;;;;;17.87;nan;101404.72;5013972;28;20480;-89
2022/05/09 03:40:33;;;;;;;4.03;2.37;;;;;;;17.86;nan;101405.81;4982351;28;20453;-89
2022/05/09 03:43:02;;;;;;;8.70;2.77;;;;;;;17.83;nan;101406.25;4979673;28;20525;-89
2022/05/09 03:45:32;;;;;;;8.97;2.43;;;;;;;17.86;nan;101419.63;4983937;28;20453;-90
2022/05/09 03:48:03;;;;;;;6.70;2.77;;;;;;;17.84;nan;101402.41;4997069;28;20972;-90
2022/05/09 03:50:32;;;;;;;6.80;3.00;;;;;;;17.90;nan;101400.63;4979066;28;20457;-89
2022/05/09 03:53:00;;;;;;;7.40;2.43;;;;;;;17.92;nan;101399.34;4979489;28;20450;-88
2022/05/09 03:55:29;;;;;;;5.40;2.90;;;;;;;17.87;nan;101387.28;4963606;28;20855;-89
2022/05/09 03:57:58;;;;;;;6.93;3.00;;;;;;;17.92;nan;101396.56;5008482;28;20453;-89
2022/05/09 04:00:28;;;;;;;5.80;2.60;;;;;;;17.91;nan;101389.34;5011157;28;20503;-89
2022/05/09 04:03:00;;;;;;;19.43;3.50;;;;;;;17.97;nan;101397.81;4979099;28;20437;-89
2022/05/09 04:05:31;;;;;;;10.67;2.80;;;;;;;17.94;nan;101391.66;4983982;28;20456;-89
2022/05/09 04:08:01;;;;;;;6.00;2.93;;;;;;;17.97;nan;101392.28;4995511;28;20523;-89
2022/05/09 04:10:31;;;;;;;9.30;2.87;;;;;;;17.86;nan;101397.50;4994682;28;21084;-89
2022/05/09 04:12:59;;;;;;;10.63;2.90;;;;;;;17.83;nan;101392.41;4996652;28;20452;-89
2022/05/09 04:18:18;;;;;;;6.00;2.80;;;;;;;17.74;nan;101379.94;5013871;28;20480;-89
2022/05/09 04:20:47;;;;;;;5.60;2.70;;;;;;;17.75;nan;101384.41;5000835;28;20845;-89
2022/05/09 04:23:17;;;;;;;4.87;2.53;;;;;;;17.65;nan;101373.00;4998015;28;20455;-89
2022/05/09 04:25:45;;;;;;;7.37;3.23;;;;;;;17.74;nan;101388.22;5014211;28;20452;-89
2022/05/09 04:28:24;;;;;;;13.90;2.80;;;;;;;17.75;nan;101389.94;4997922;28;20452;-89
2022/05/09 04:30:54;;;;;;;5.70;2.60;;;;;;;17.71;nan;101387.81;5013410;28;20479;-89
2022/05/09 04:33:27;;;;;;;7.83;3.27;;;;;;;17.65;nan;101377.69;5029735;28;20452;-89
2022/05/09 04:35:57;;;;;;;7.17;2.93;;;;;;;17.64;nan;101376.84;4997044;28;20452;-89
2022/05/09 04:38:27;;;;;;;4.23;2.60;;;;;;;17.58;nan;101377.69;5013177;28;20479;-89
2022/05/09 04:40:56;;;;;;;7.57;3.10;;;;;;;17.61;nan;101385.53;5029944;28;20460;-88
2022/05/09 04:43:28;;;;;;;4.33;2.77;;;;;;;17.56;nan;101377.06;5013528;28;20946;-89
2022/05/09 04:45:59;;;;;;;9.00;2.67;;;;;;;17.53;nan;101389.41;4995189;28;20457;-88
2022/05/09 04:48:30;;;;;;;6.00;2.23;;;;;;;17.54;nan;101390.28;5019115;28;20462;-91
2022/05/09 04:50:57;;;;;;;5.47;2.83;;;;;;;17.55;nan;101394.72;4997688;28;20455;-90
2022/05/09 04:53:26;;;;;;;9.57;4.10;;;;;;;17.45;nan;101394.41;4978452;28;20855;-89
2022/05/09 04:55:58;;;;;;;7.47;2.70;;;;;;;17.48;nan;101397.56;4975994;28;20455;-90
2022/05/09 04:58:27;;;;;;;8.13;2.63;;;;;;;17.48;nan;101405.00;5013207;28;21028;-89
2022/05/09 05:00:56;;;;;;;5.33;2.80;;;;;;;17.48;nan;101407.78;4993796;28;20947;-89
2022/05/09 05:03:24;;;;;;;8.10;2.20;;;;;;;17.50;nan;101408.41;4986025;28;20456;-89
2022/05/09 05:05:52;;;;;;;10.83;2.70;;;;;;;17.45;nan;101405.44;5009315;28;20477;-89
2022/05/09 05:08:20;;;;;;;9.03;2.63;;;;;;;17.41;nan;101393.13;4992508;28;20456;-88
2022/05/09 05:10:53;;;;;;;9.33;2.90;;;;;;;17.48;nan;101405.84;4996321;28;20480;-89
2022/05/09 05:13:22;;;;;;;5.30;2.57;;;;;;;17.47;nan;101404.16;4996480;28;20448;-89
2022/05/09 05:15:50;;;;;;;4.97;2.57;;;;;;;17.44;nan;101396.31;4996086;28;20445;-89
2022/05/09 05:18:23;;;;;;;5.53;2.30;;;;;;;17.49;nan;101412.22;4996361;28;20456;-89
2022/05/09 05:20:54;;;;;;;6.53;2.90;;;;;;;17.44;nan;101409.28;4996780;28;20954;-89
2022/05/09 05:23:21;;;;;;;8.27;2.57;;;;;;;17.43;nan;101402.06;5014417;28;20457;-89
2022/05/09 05:25:49;;;;;;;3.23;2.30;;;;;;;17.43;nan;101407.59;4997245;28;20448;-89
2022/05/09 05:28:17;;;;;;;8.53;2.33;;;;;;;17.42;nan;101408.66;4977958;28;20455;-88
2022/05/09 05:30:45;;;;;;;9.10;3.20;;;;;;;17.41;nan;101404.19;5003527;28;20464;-89
2022/05/09 05:33:13;;;;;;;6.43;2.50;;;;;;;17.36;nan;101404.00;4979750;28;20445;-88
2022/05/09 05:35:40;;;;;;;7.80;2.60;;;;;;;17.32;nan;101405.53;4993211;28;20445;-89
2022/05/09 05:38:08;;;;;;;10.77;3.20;;;;;;;17.34;nan;101414.44;4992118;28;20453;-89
2022/05/09 05:40:35;;;;;;;14.47;3.60;;;;;;;17.29;nan;101414.28;5000643;28;20494;-89
2022/05/09 05:43:05;;;;;;;8.83;3.13;;;;;;;17.15;nan;101405.19;5012599;28;20456;-89
2022/05/09 05:45:32;;;;;;;14.70;2.83;;;;;;;17.10;nan;101436.25;4995371;28;20446;-89
2022/05/09 05:48:03;;;;;;;9.73;3.43;;;;;;;17.04;nan;101439.03;4995539;28;20459;-89
2022/05/09 05:50:30;;;;;;;9.87;2.93;;;;;;;16.96;nan;101429.09;5012700;28;20460;-89
2022/05/09 05:52:58;;;;;;;7.37;2.90;;;;;;;16.95;nan;101440.34;4996565;28;20857;-89
2022/05/09 05:55:28;;;;;;;3.83;2.57;;;;;;;16.93;nan;101446.94;4980705;28;20456;-90
2022/05/09 05:57:58;;;;;;;6.37;2.60;;;;;;;16.92;nan;101453.53;5013407;28;20452;-90
2022/05/09 06:00:52;;;;;;;12.73;2.83;;;;;;;16.95;nan;101457.75;4957067;28;20485;-89
2022/05/09 06:03:26;;;;;;;10.03;3.37;;;;;;;16.89;nan;101453.13;4972227;28;20454;-88
2022/05/09 06:05:54;;;;;;;12.27;2.93;;;;;;;16.91;nan;101464.81;4941626;28;20453;-90
2022/05/09 06:08:30;;;;;;;7.30;2.60;;;;;;;16.89;nan;101467.78;4972443;28;20574;-90
2022/05/09 06:10:58;;;;;;;9.53;3.37;;;;;;;16.85;nan;101460.16;4925362;28;20473;-90
2022/05/09 06:13:27;;;;;;;8.73;2.70;;;;;;;16.80;nan;101463.56;4941459;28;20455;-89
2022/05/09 06:16:04;;;;;;;12.70;2.97;;;;;;;16.84;nan;101477.78;4956244;28;20453;-89
2022/05/09 06:18:37;;;;;;;10.70;3.07;;;;;;;16.79;nan;101466.53;4966598;28;20973;-89
2022/05/09 06:21:06;;;;;;;17.63;2.93;;;;;;;16.81;nan;101476.28;4980442;28;20455;-89
2022/05/09 06:23:34;;;;;;;12.17;2.60;;;;;;;16.80;nan;101474.59;4996150;28;20444;-89
2022/05/09 06:26:02;;;;;;;8.73;2.50;;;;;;;16.81;nan;101476.28;4996038;28;20460;-89
2022/05/09 06:28:33;;;;;;;14.50;3.50;;;;;;;16.86;nan;101478.41;4992303;28;20453;-89
2022/05/09 06:31:05;;;;;;;4.63;2.47;;;;;;;16.82;nan;101474.38;4978282;28;20815;-89
2022/05/09 06:33:46;;;;;;;10.50;3.07;;;;;;;16.84;nan;101475.88;4982930;28;20510;-89
2022/05/09 06:36:18;;;;;;;11.00;4.10;;;;;;;16.89;nan;101473.31;4980817;28;20964;-89
2022/05/09 06:38:57;;;;;;;12.73;3.50;;;;;;;17.05;nan;101485.78;4997095;28;21046;-90
2022/05/09 06:41:33;;;;;;;8.07;3.00;;;;;;;17.05;nan;101477.50;4991905;28;20464;-89
2022/05/09 06:44:02;;;;;;;12.77;2.30;;;;;;;17.04;nan;101466.66;4961403;28;20453;-89
2022/05/09 06:46:31;;;;;;;7.30;2.80;;;;;;;17.22;nan;101488.88;4995066;28;20820;-90
2022/05/09 06:49:01;;;;;;;5.37;2.87;;;;;;;17.31;nan;101498.66;4996092;28;20472;-90
2022/05/09 06:51:34;;;;;;;7.83;2.97;;;;;;;17.34;nan;101494.56;4996426;28;20456;-90
2022/05/09 06:54:05;;;;;;;5.43;2.57;;;;;;;17.42;nan;101500.69;4980344;28;20448;-89
2022/05/09 06:57:01;;;;;;;6.13;2.47;;;;;;;17.61;nan;101504.41;4979784;28;20953;-90
2022/05/09 06:59:32;;;;;;;8.30;4.53;;;;;;;17.70;nan;101505.91;5007971;28;20476;-90
2022/05/09 07:02:03;;;;;;;11.93;4.70;;;;;;;17.80;nan;101503.47;4998969;28;20456;-92
2022/05/09 07:04:39;;;;;;;4.40;3.07;;;;;;;17.92;nan;101518.28;5015522;28;20447;-89
2022/05/09 07:07:07;;;;;;;13.27;3.70;;;;;;;17.98;nan;101504.63;5016244;28;20447;-89
2022/05/09 07:09:35;;;;;;;10.73;3.67;;;;;;;18.12;nan;101514.53;4999355;28;20468;-89
2022/05/09 07:12:04;;;;;;;5.23;3.27;;;;;;;18.18;nan;101516.41;5000049;28;20455;-90
2022/05/09 07:14:33;;;;;;;9.17;3.20;;;;;;;18.35;nan;101516.69;5000029;28;20448;-90
2022/05/09 07:17:05;;;;;;;14.57;3.30;;;;;;;18.44;nan;101524.47;5015910;28;20816;-90
2022/05/09 07:19:35;;;;;;;9.37;2.77;;;;;;;18.52;nan;101507.56;5001010;28;20992;-90
2022/05/09 07:22:03;;;;;;;14.13;3.40;;;;;;;18.63;nan;101512.41;4988060;28;20441;-89
2022/05/09 07:24:34;;;;;;;7.53;2.80;;;;;;;18.80;nan;101526.50;5013326;28;20451;-89
2022/05/09 07:27:04;;;;;;;6.03;2.80;;;;;;;18.96;nan;101530.59;4979890;28;20448;-90
2022/05/09 07:29:33;;;;;;;9.67;2.70;;;;;;;19.07;nan;101524.28;4980061;28;20515;-90
2022/05/09 07:32:01;;;;;;;6.60;2.50;;;;;;;19.22;nan;101535.00;4979942;28;20491;-90
2022/05/09 07:34:35;;;;;;;4.60;2.80;;;;;;;19.36;nan;101521.81;4980431;28;20805;-89
2022/05/09 07:37:03;;;;;;;7.87;2.80;;;;;;;19.47;nan;101521.00;4981159;28;20449;-89
2022/05/09 07:39:31;;;;;;;12.23;3.23;;;;;;;19.61;nan;101533.66;4979707;28;20485;-89
2022/05/09 07:42:01;;;;;;;6.37;2.60;;;;;;;19.71;nan;101527.53;4963978;28;20544;-89
2022/05/09 07:44:29;;;;;;;6.13;2.50;;;;;;;19.85;nan;101540.97;4986772;28;20475;-89
2022/05/09 07:46:57;;;;;;;11.33;2.77;;;;;;;20.00;nan;101544.19;5000466;28;20444;-88
2022/05/09 07:49:30;;;;;;;16.23;2.90;;;;;;;20.14;nan;101543.97;4999247;28;20497;-93
2022/05/09 07:51:59;;;;;;;4.87;2.57;;;;;;;20.23;nan;101535.03;5012314;28;20821;-87
2022/05/09 07:54:29;;;;;;;10.80;2.77;;;;;;;20.35;nan;101552.59;5013221;28;20448;-87
2022/05/09 07:56:58;;;;;;;6.13;2.73;;;;;;;20.50;nan;101546.59;4997806;28;20440;-86
2022/05/09 07:59:29;;;;;;;6.13;2.37;;;;;;;20.64;nan;101541.66;5013604;28;20498;-87
2022/05/09 08:01:58;;;;;;;8.13;2.97;;;;;;;20.76;nan;101544.44;5013900;28;20965;-87
2022/05/09 08:04:28;;;;;;;6.93;2.63;;;;;;;20.95;nan;101554.34;5030295;28;20456;-87
2022/05/09 08:06:56;;;;;;;5.27;2.70;;;;;;;21.07;nan;101549.63;5014169;28;20783;-87
2022/05/09 08:09:23;;;;;;;3.73;2.30;;;;;;;21.21;nan;101551.06;5012940;28;20824;-87
2022/05/09 08:11:52;;;;;;;13.13;3.90;;;;;;;21.28;nan;101546.22;4998009;28;20454;-87
2022/05/09 08:14:20;;;;;;;4.77;2.63;;;;;;;21.42;nan;101548.72;5013520;28;20452;-87
2022/05/09 08:16:48;;;;;;;8.10;3.43;;;;;;;21.62;nan;101563.06;5013870;28;20450;-87
2022/05/09 08:19:16;;;;;;;9.80;3.60;;;;;;;21.68;nan;101562.06;5013611;28;20476;-87
2022/05/09 08:21:49;;;;;;;14.13;4.57;;;;;;;21.83;nan;101567.94;5013011;28;20973;-87
2022/05/09 08:24:19;;;;;;;42.77;5.27;;;;;;;21.90;nan;101565.88;5013301;28;20498;-87
2022/05/09 08:26:47;;;;;;;16.30;4.10;;;;;;;22.04;nan;101566.44;5029868;28;20498;-87
2022/05/09 08:29:15;;;;;;;16.43;3.50;;;;;;;22.15;nan;101570.22;4997727;28;20448;-87
2022/05/09 08:31:43;;;;;;;11.10;3.83;;;;;;;22.23;nan;101572.63;4981175;28;20459;-86
2022/05/09 08:34:14;;;;;;;18.67;4.63;;;;;;;22.32;nan;101574.72;5019701;28;20449;-87
2022/05/09 08:36:46;;;;;;;17.07;4.40;;;;;;;22.43;nan;101581.34;4993636;28;20876;-87
2022/05/09 08:39:14;;;;;;;34.00;5.07;;;;;;;22.61;nan;101581.09;4974455;28;20856;-87
2022/05/09 08:42:04;;;;;;;37.40;5.00;;;;;;;22.72;nan;101582.94;4960540;28;20495;-87
2022/05/09 08:44:47;;;;;;;25.00;4.80;;;;;;;22.88;nan;101591.59;4961918;28;20448;-87
2022/05/09 08:47:35;;;;;;;18.27;4.20;;;;;;;22.97;nan;101598.41;4988481;28;20449;-87
2022/05/09 08:50:26;;;;;;;8.40;3.30;;;;;;;23.05;nan;101600.78;4989327;28;20449;-87
2022/05/09 08:52:59;;;;;;;7.70;3.73;;;;;;;23.13;nan;101603.13;4968949;28;20464;-87
2022/05/09 08:55:32;;;;;;;10.23;4.30;;;;;;;23.21;nan;101590.69;4976569;28;20817;-87
2022/05/09 08:58:39;;;;;;;12.60;4.10;;;;;;;23.29;nan;101591.06;4976380;28;20459;-87
2022/05/09 09:01:22;;;;;;;8.47;4.87;;;;;;;23.36;nan;101586.16;5029049;28;20526;-87
2022/05/09 09:03:57;;;;;;;9.20;5.30;;;;;;;23.46;nan;101579.03;4997543;28;20456;-89
2022/05/09 09:07:04;;;;;;;6.30;3.30;;;;;;;23.58;nan;101579.78;5001391;28;20458;-88
2022/05/09 09:10:13;;;;;;;10.33;2.40;;;;;;;23.75;nan;101583.31;5017882;28;20465;-91
2022/05/09 09:12:59;;;;;;;9.63;3.63;;;;;;;23.91;nan;101582.41;5015237;28;20452;-90
2022/05/09 09:15:58;;;;;;;11.50;5.00;;;;;;;24.09;nan;101592.38;5020607;28;20444;-90
2022/05/09 09:18:45;;;;;;;6.23;3.17;;;;;;;24.24;nan;101583.34;5016304;28;20514;-88
2022/05/09 09:21:39;;;;;;;6.47;2.87;;;;;;;24.36;nan;101589.59;5016874;28;20487;-88
2022/05/09 09:24:16;;;;;;;6.77;3.30;;;;;;;24.50;nan;101593.63;5013789;28;20518;-87
2022/05/09 09:27:08;;;;;;;9.63;2.90;;;;;;;24.56;nan;101583.34;4996608;28;20844;-88
2022/05/09 09:30:05;;;;;;;4.90;2.80;;;;;;;24.73;nan;101600.84;4998383;28;20456;-88
2022/05/09 09:32:36;;;;;;;13.37;2.83;;;;;;;24.83;nan;101589.72;4999609;28;20456;-89
2022/05/09 09:35:35;;;;;;;11.13;3.30;;;;;;;24.95;nan;101597.97;5013940;28;20448;-88
2022/05/09 09:42:10;;;;;;;9.50;3.40;;;;;;;25.31;nan;101604.63;5018820;28;20547;-94
2022/05/09 09:45:25;;;;;;;10.17;3.27;;;;;;;25.50;nan;101607.81;4952010;28;20464;-93
2022/05/09 09:51:58;;;;;;;7.60;2.80;;;;;;;25.82;nan;101616.94;4954842;28;20527;-90
2022/05/09 09:54:31;;;;;;;6.93;3.03;;;;;;;25.99;nan;101625.09;4921502;29;20459;-90
2022/05/09 09:57:48;;;;;;;9.57;3.00;;;;;;;26.15;nan;101636.09;4922056;29;20524;-94
2022/05/09 10:04:37;;;;;;;6.83;2.80;;;;;;;26.46;nan;101641.78;4945386;29;20438;-94
2022/05/09 10:26:10;;;;;;;5.67;2.47;;;;;;;27.47;nan;101633.34;4916198;29;20423;-94
2022/05/09 10:37:24;;;;;;;;;;;;;;;;;;;;;
2022/05/09 10:45:07;;;;;;;;;;;;;;;;;;;;;
2022/05/09 10:55:52;;;;;;;4.40;2.40;;;;;;;28.78;nan;101632.94;4868484;29;20462;-95
2022/05/09 11:02:38;;;;;;;5.80;2.70;;;;;;;29.03;nan;101640.38;4808388;29;20983;-93
2022/05/09 11:18:10;;;;;;;;;;;;;;;;;;;;;
2022/05/09 12:30:01;;;;;;;6.37;1.50;;;;;;;31.15;nan;101624.56;4974835;28;20441;-94
2022/05/09 12:36:56;;;;;;;3.20;1.40;;;;;;;31.33;nan;101623.63;4975311;28;20429;-95
2022/05/09 13:10:20;;;;;;;5.73;1.40;;;;;;;31.84;nan;101622.63;4996259;28;20392;-95
2022/05/09 13:56:26;;;;;;;3.20;1.27;;;;;;;32.65;nan;101583.09;5014900;28;20462;-96
2022/05/09 14:00:07;;;;;;;2.50;1.50;;;;;;;32.75;nan;101589.34;5000340;28;20469;-96
2022/05/09 14:02:52;;;;;;;3.63;1.60;;;;;;;32.76;nan;101573.19;5029455;28;20462;-96
2022/05/09 14:05:31;;;;;;;3.00;1.30;;;;;;;32.87;nan;101574.63;4997575;28;20447;-96
2022/05/09 14:11:40;;;;;;;6.10;1.60;;;;;;;32.92;nan;101572.47;5018761;28;20406;-96
2022/05/09 14:14:41;;;;;;;5.17;1.87;;;;;;;33.00;nan;101578.53;4986115;28;20517;-96
2022/05/09 15:53:13;;;;;;;6.50;3.03;;;;;;;31.73;nan;101539.16;5016809;28;20491;-93
2022/05/09 15:59:41;;;;;;;9.83;3.20;;;;;;;31.16;nan;101553.63;5016734;28;20423;-95
2022/05/09 16:02:09;;;;;;;17.10;3.50;;;;;;;30.99;nan;101541.19;4983267;28;20491;-94
2022/05/09 16:04:57;;;;;;;8.43;3.40;;;;;;;30.81;nan;101560.72;4983545;28;20447;-96
2022/05/09 16:12:25;;;;;;;;;;;;;;;;;;;;;
2022/05/09 16:46:04;;;;;;;10.37;4.60;;;;;;;29.50;nan;101529.72;4955790;29;20465;-93
2022/05/09 17:15:59;;;;;;;9.97;4.23;;;;;;;27.87;nan;101533.19;5027505;28;20452;-95
2022/05/09 17:18:52;;;;;;;9.57;3.50;;;;;;;27.88;nan;101540.50;4960533;28;20945;-93
2022/05/09 17:22:20;;;;;;;8.07;3.97;;;;;;;27.90;nan;101538.22;4978870;28;20963;-94
2022/05/09 17:59:54;;;;;;;14.83;4.70;;;;;;;26.70;nan;101541.97;4947883;29;20949;-92
2022/05/09 18:03:02;;;;;;;12.53;4.90;;;;;;;26.60;nan;101552.34;4941925;29;20443;-92
2022/05/09 18:06:01;;;;;;;8.67;4.80;;;;;;;26.54;nan;101542.28;4973442;28;20467;-92
2022/05/09 18:12:03;;;;;;;10.63;5.07;;;;;;;26.28;nan;101530.16;4987908;28;20453;-92
2022/05/09 18:14:50;;;;;;;16.50;5.80;;;;;;;26.30;nan;101547.59;4986933;28;20445;-94
2022/05/09 18:21:44;;;;;;;13.70;5.67;;;;;;;25.99;nan;101536.28;4999259;28;20471;-93
2022/05/09 18:24:51;;;;;;;17.33;5.83;;;;;;;25.72;nan;101533.72;4981627;28;20457;-92
2022/05/09 18:32:04;;;;;;;15.43;6.20;;;;;;;25.12;nan;101548.28;4999897;28;20469;-93
2022/05/09 18:35:15;;;;;;;17.93;5.87;;;;;;;24.75;nan;101546.31;4984932;28;20448;-94
2022/05/09 18:37:58;;;;;;;12.23;5.53;;;;;;;24.47;nan;101548.59;4968512;28;20778;-93
2022/05/09 18:55:27;;;;;;;17.33;6.17;;;;;;;23.84;nan;101551.06;4935525;28;20876;-96
2022/05/09 19:29:30;;;;;;;14.00;5.83;;;;;;;22.79;nan;101595.88;5029208;28;20451;-92
2022/05/09 20:23:09;;;;;;;12.77;7.30;;;;;;;21.82;nan;101607.16;4956136;29;20474;-93
2022/05/09 20:37:45;;;;;;;30.07;10.40;;;;;;;21.06;nan;101595.19;5031756;28;20463;-93
2022/05/09 20:44:45;;;;;;;29.77;9.40;;;;;;;20.68;nan;101624.28;5015672;28;20488;-93
2022/05/09 20:51:03;;;;;;;29.83;10.07;;;;;;;20.23;nan;101636.91;5008574;28;20531;-92
2022/05/09 21:28:29;;;;;;;27.33;9.70;;;;;;;19.83;nan;101659.66;5014982;28;20752;-92
2022/05/09 21:42:26;;;;;;;33.47;10.23;;;;;;;19.69;nan;101668.38;4995234;28;20468;-94
2022/05/09 21:49:05;;;;;;;27.93;10.70;;;;;;;19.67;nan;101671.41;4995272;28;20493;-93
2022/05/09 21:55:29;;;;;;;20.97;9.83;;;;;;;19.39;nan;101651.66;4954881;29;20432;-95
2022/05/09 21:58:15;;;;;;;30.60;10.10;;;;;;;19.43;nan;101658.44;4938697;29;20466;-93
